sensor_id;sensor_type;location;lat;lon;timestamp;P1;durP1;ratioP1;P2;durP2;ratioP2
16506;SDS011;8366;51.020;7.642;2023-02-22T00:00:37;21.00;;;13.60;;
16506;SDS011;8366;51.020;7.642;2023-02-22T00:03:08;20.90;;;13.30;;
16506;SDS011;8366;51.020;7.642;2023-02-22T00:05:36;26.80;;;14.63;;
16506;SDS011;8366;51.020;7.642;2023-02-22T00:08:04;20.67;;;13.70;;
16506;SDS011;8366;51.020;7.642;2023-02-22T00:10:33;25.83;;;15.47;;
16506;SDS011;8366;51.020;7.642;2023-02-22T00:13:04;21.00;;;15.00;;
16506;SDS011;8366;51.020;7.642;2023-02-22T00:15:32;26.30;;;15.37;;
16506;SDS011;8366;51.020;7.642;2023-02-22T00:17:59;28.07;;;16.33;;
16506;SDS011;8366;51.020;7.642;2023-02-22T00:20:25;26.63;;;15.43;;
16506;SDS011;8366;51.020;7.642;2023-02-22T00:22:52;26.97;;;15.47;;
16506;SDS011;8366;51.020;7.642;2023-02-22T00:25:20;25.73;;;14.80;;
16506;SDS011;8366;51.020;7.642;2023-02-22T00:27:47;22.13;;;14.17;;
16506;SDS011;8366;51.020;7.642;2023-02-22T00:30:19;25.73;;;14.47;;
16506;SDS011;8366;51.020;7.642;2023-02-22T00:32:47;22.40;;;13.90;;
16506;SDS011;8366;51.020;7.642;2023-02-22T00:35:15;24.40;;;13.77;;
16506;SDS011;8366;51.020;7.642;2023-02-22T00:37:42;30.17;;;14.97;;
16506;SDS011;8366;51.020;7.642;2023-02-22T00:40:09;22.73;;;13.40;;
16506;SDS011;8366;51.020;7.642;2023-02-22T00:42:37;24.80;;;14.37;;
16506;SDS011;8366;51.020;7.642;2023-02-22T00:45:03;23.03;;;14.37;;
16506;SDS011;8366;51.020;7.642;2023-02-22T00:47:32;24.57;;;14.27;;
16506;SDS011;8366;51.020;7.642;2023-02-22T00:49:59;23.00;;;13.67;;
16506;SDS011;8366;51.020;7.642;2023-02-22T00:52:26;20.13;;;13.17;;
16506;SDS011;8366;51.020;7.642;2023-02-22T00:54:52;21.00;;;12.60;;
16506;SDS011;8366;51.020;7.642;2023-02-22T00:57:19;21.83;;;12.83;;
16506;SDS011;8366;51.020;7.642;2023-02-22T00:59:46;21.90;;;13.37;;
16506;SDS011;8366;51.020;7.642;2023-02-22T01:02:12;23.07;;;13.03;;
16506;SDS011;8366;51.020;7.642;2023-02-22T01:04:40;20.97;;;12.57;;
16506;SDS011;8366;51.020;7.642;2023-02-22T01:07:07;21.03;;;12.93;;
16506;SDS011;8366;51.020;7.642;2023-02-22T01:09:33;22.47;;;13.37;;
16506;SDS011;8366;51.020;7.642;2023-02-22T01:12:00;20.20;;;12.17;;
16506;SDS011;8366;51.020;7.642;2023-02-22T01:14:27;22.63;;;12.77;;
16506;SDS011;8366;51.020;7.642;2023-02-22T01:16:54;20.47;;;11.67;;
16506;SDS011;8366;51.020;7.642;2023-02-22T01:19:21;23.00;;;13.33;;
16506;SDS011;8366;51.020;7.642;2023-02-22T01:21:49;21.03;;;11.70;;
16506;SDS011;8366;51.020;7.642;2023-02-22T01:24:16;19.90;;;12.47;;
16506;SDS011;8366;51.020;7.642;2023-02-22T01:26:48;20.97;;;12.27;;
16506;SDS011;8366;51.020;7.642;2023-02-22T01:29:15;22.07;;;12.60;;
16506;SDS011;8366;51.020;7.642;2023-02-22T01:31:49;18.63;;;11.57;;
16506;SDS011;8366;51.020;7.642;2023-02-22T01:34:16;20.57;;;12.30;;
16506;SDS011;8366;51.020;7.642;2023-02-22T01:36:43;18.60;;;11.10;;
16506;SDS011;8366;51.020;7.642;2023-02-22T01:39:11;18.53;;;11.50;;
16506;SDS011;8366;51.020;7.642;2023-02-22T01:41:37;17.33;;;11.40;;
16506;SDS011;8366;51.020;7.642;2023-02-22T01:44:17;18.60;;;11.47;;
16506;SDS011;8366;51.020;7.642;2023-02-22T01:46:45;17.57;;;10.97;;
16506;SDS011;8366;51.020;7.642;2023-02-22T01:49:11;16.50;;;10.37;;
16506;SDS011;8366;51.020;7.642;2023-02-22T01:51:39;17.27;;;10.50;;
16506;SDS011;8366;51.020;7.642;2023-02-22T01:54:08;18.33;;;9.90;;
16506;SDS011;8366;51.020;7.642;2023-02-22T01:56:40;16.83;;;10.50;;
16506;SDS011;8366;51.020;7.642;2023-02-22T01:59:14;15.00;;;9.90;;
16506;SDS011;8366;51.020;7.642;2023-02-22T02:01:41;16.93;;;10.47;;
16506;SDS011;8366;51.020;7.642;2023-02-22T02:04:09;21.97;;;11.43;;
16506;SDS011;8366;51.020;7.642;2023-02-22T02:06:37;18.10;;;11.10;;
16506;SDS011;8366;51.020;7.642;2023-02-22T02:09:08;19.67;;;10.77;;
16506;SDS011;8366;51.020;7.642;2023-02-22T02:11:39;17.77;;;10.77;;
16506;SDS011;8366;51.020;7.642;2023-02-22T02:14:07;18.63;;;11.03;;
16506;SDS011;8366;51.020;7.642;2023-02-22T02:16:36;17.83;;;11.90;;
16506;SDS011;8366;51.020;7.642;2023-02-22T02:19:04;19.50;;;11.17;;
16506;SDS011;8366;51.020;7.642;2023-02-22T02:21:38;17.30;;;10.27;;
16506;SDS011;8366;51.020;7.642;2023-02-22T02:27:10;18.07;;;10.40;;
16506;SDS011;8366;51.020;7.642;2023-02-22T02:29:46;19.33;;;10.73;;
16506;SDS011;8366;51.020;7.642;2023-02-22T02:32:52;18.50;;;10.40;;
16506;SDS011;8366;51.020;7.642;2023-02-22T02:35:25;15.73;;;9.60;;
16506;SDS011;8366;51.020;7.642;2023-02-22T02:37:58;16.87;;;9.97;;
16506;SDS011;8366;51.020;7.642;2023-02-22T02:40:30;18.60;;;10.50;;
16506;SDS011;8366;51.020;7.642;2023-02-22T02:43:01;16.30;;;10.10;;
16506;SDS011;8366;51.020;7.642;2023-02-22T02:45:34;18.50;;;10.23;;
16506;SDS011;8366;51.020;7.642;2023-02-22T02:48:05;18.10;;;10.30;;
16506;SDS011;8366;51.020;7.642;2023-02-22T02:50:35;17.23;;;10.60;;
16506;SDS011;8366;51.020;7.642;2023-02-22T02:53:06;15.80;;;9.50;;
16506;SDS011;8366;51.020;7.642;2023-02-22T02:55:33;16.50;;;9.80;;
16506;SDS011;8366;51.020;7.642;2023-02-22T02:58:01;17.30;;;9.87;;
16506;SDS011;8366;51.020;7.642;2023-02-22T03:00:30;16.33;;;9.67;;
16506;SDS011;8366;51.020;7.642;2023-02-22T03:03:07;15.17;;;9.00;;
16506;SDS011;8366;51.020;7.642;2023-02-22T03:05:50;15.50;;;9.43;;
16506;SDS011;8366;51.020;7.642;2023-02-22T03:08:28;15.60;;;9.30;;
16506;SDS011;8366;51.020;7.642;2023-02-22T03:10:58;15.17;;;9.37;;
16506;SDS011;8366;51.020;7.642;2023-02-22T03:13:32;14.90;;;9.03;;
16506;SDS011;8366;51.020;7.642;2023-02-22T03:16:03;16.77;;;9.43;;
16506;SDS011;8366;51.020;7.642;2023-02-22T03:18:38;15.67;;;9.17;;
16506;SDS011;8366;51.020;7.642;2023-02-22T03:21:11;14.97;;;9.00;;
16506;SDS011;8366;51.020;7.642;2023-02-22T03:23:42;14.17;;;9.30;;
16506;SDS011;8366;51.020;7.642;2023-02-22T03:26:13;15.67;;;9.80;;
16506;SDS011;8366;51.020;7.642;2023-02-22T03:28:43;14.87;;;8.77;;
16506;SDS011;8366;51.020;7.642;2023-02-22T03:31:12;14.27;;;8.83;;
16506;SDS011;8366;51.020;7.642;2023-02-22T03:33:44;13.23;;;8.93;;
16506;SDS011;8366;51.020;7.642;2023-02-22T03:36:13;18.20;;;10.07;;
16506;SDS011;8366;51.020;7.642;2023-02-22T03:38:41;16.40;;;9.43;;
16506;SDS011;8366;51.020;7.642;2023-02-22T03:41:09;16.23;;;9.77;;
16506;SDS011;8366;51.020;7.642;2023-02-22T03:43:37;14.83;;;9.13;;
16506;SDS011;8366;51.020;7.642;2023-02-22T03:46:07;17.47;;;9.97;;
16506;SDS011;8366;51.020;7.642;2023-02-22T03:48:35;14.77;;;9.40;;
16506;SDS011;8366;51.020;7.642;2023-02-22T03:51:06;16.40;;;9.67;;
16506;SDS011;8366;51.020;7.642;2023-02-22T03:53:33;20.27;;;9.50;;
16506;SDS011;8366;51.020;7.642;2023-02-22T03:56:01;18.70;;;9.60;;
16506;SDS011;8366;51.020;7.642;2023-02-22T03:58:30;14.43;;;8.80;;
16506;SDS011;8366;51.020;7.642;2023-02-22T04:00:57;13.63;;;9.27;;
16506;SDS011;8366;51.020;7.642;2023-02-22T04:03:23;14.90;;;9.00;;
16506;SDS011;8366;51.020;7.642;2023-02-22T04:05:50;15.53;;;9.07;;
16506;SDS011;8366;51.020;7.642;2023-02-22T04:08:18;14.33;;;8.70;;
16506;SDS011;8366;51.020;7.642;2023-02-22T04:10:44;15.93;;;9.57;;
16506;SDS011;8366;51.020;7.642;2023-02-22T04:13:11;14.80;;;8.53;;
16506;SDS011;8366;51.020;7.642;2023-02-22T04:15:38;16.53;;;9.70;;
16506;SDS011;8366;51.020;7.642;2023-02-22T04:18:05;18.00;;;9.20;;
16506;SDS011;8366;51.020;7.642;2023-02-22T04:20:32;16.30;;;9.17;;
16506;SDS011;8366;51.020;7.642;2023-02-22T04:22:58;15.23;;;8.93;;
16506;SDS011;8366;51.020;7.642;2023-02-22T04:25:26;15.43;;;8.73;;
16506;SDS011;8366;51.020;7.642;2023-02-22T04:27:53;18.17;;;9.17;;
16506;SDS011;8366;51.020;7.642;2023-02-22T04:30:19;15.97;;;8.50;;
16506;SDS011;8366;51.020;7.642;2023-02-22T04:32:46;15.50;;;9.07;;
16506;SDS011;8366;51.020;7.642;2023-02-22T04:35:13;17.43;;;9.23;;
16506;SDS011;8366;51.020;7.642;2023-02-22T04:37:39;17.40;;;10.43;;
16506;SDS011;8366;51.020;7.642;2023-02-22T04:40:06;16.90;;;9.43;;
16506;SDS011;8366;51.020;7.642;2023-02-22T04:42:36;14.00;;;9.33;;
16506;SDS011;8366;51.020;7.642;2023-02-22T04:45:03;16.53;;;9.27;;
16506;SDS011;8366;51.020;7.642;2023-02-22T04:47:31;16.83;;;9.10;;
16506;SDS011;8366;51.020;7.642;2023-02-22T04:49:58;15.27;;;8.90;;
16506;SDS011;8366;51.020;7.642;2023-02-22T04:52:25;16.33;;;8.60;;
16506;SDS011;8366;51.020;7.642;2023-02-22T04:54:54;14.23;;;8.17;;
16506;SDS011;8366;51.020;7.642;2023-02-22T04:57:20;13.53;;;8.37;;
16506;SDS011;8366;51.020;7.642;2023-02-22T04:59:49;13.60;;;8.20;;
16506;SDS011;8366;51.020;7.642;2023-02-22T05:02:16;16.37;;;8.17;;
16506;SDS011;8366;51.020;7.642;2023-02-22T05:04:42;14.50;;;8.83;;
16506;SDS011;8366;51.020;7.642;2023-02-22T05:07:10;14.03;;;8.67;;
16506;SDS011;8366;51.020;7.642;2023-02-22T05:09:36;14.17;;;7.93;;
16506;SDS011;8366;51.020;7.642;2023-02-22T05:12:03;16.97;;;8.63;;
16506;SDS011;8366;51.020;7.642;2023-02-22T05:14:29;13.30;;;8.63;;
16506;SDS011;8366;51.020;7.642;2023-02-22T05:16:57;18.60;;;9.30;;
16506;SDS011;8366;51.020;7.642;2023-02-22T05:19:24;15.00;;;8.77;;
16506;SDS011;8366;51.020;7.642;2023-02-22T05:21:51;16.43;;;9.20;;
16506;SDS011;8366;51.020;7.642;2023-02-22T05:24:17;16.67;;;9.60;;
16506;SDS011;8366;51.020;7.642;2023-02-22T05:26:44;19.37;;;9.53;;
16506;SDS011;8366;51.020;7.642;2023-02-22T05:29:11;14.53;;;8.37;;
16506;SDS011;8366;51.020;7.642;2023-02-22T05:31:38;15.43;;;9.33;;
16506;SDS011;8366;51.020;7.642;2023-02-22T05:34:07;13.43;;;7.57;;
16506;SDS011;8366;51.020;7.642;2023-02-22T05:36:33;15.40;;;7.97;;
16506;SDS011;8366;51.020;7.642;2023-02-22T05:39:00;16.53;;;8.77;;
16506;SDS011;8366;51.020;7.642;2023-02-22T05:41:26;13.90;;;8.33;;
16506;SDS011;8366;51.020;7.642;2023-02-22T05:43:53;17.33;;;9.50;;
16506;SDS011;8366;51.020;7.642;2023-02-22T05:46:20;17.10;;;9.97;;
16506;SDS011;8366;51.020;7.642;2023-02-22T05:48:46;17.87;;;9.47;;
16506;SDS011;8366;51.020;7.642;2023-02-22T05:51:14;15.40;;;8.80;;
16506;SDS011;8366;51.020;7.642;2023-02-22T05:53:40;17.20;;;9.90;;
16506;SDS011;8366;51.020;7.642;2023-02-22T05:56:07;15.83;;;9.97;;
16506;SDS011;8366;51.020;7.642;2023-02-22T05:58:34;18.50;;;11.30;;
16506;SDS011;8366;51.020;7.642;2023-02-22T06:01:00;18.03;;;9.23;;
16506;SDS011;8366;51.020;7.642;2023-02-22T06:03:27;14.63;;;8.53;;
16506;SDS011;8366;51.020;7.642;2023-02-22T06:05:53;16.77;;;9.43;;
16506;SDS011;8366;51.020;7.642;2023-02-22T06:08:21;16.40;;;9.00;;
16506;SDS011;8366;51.020;7.642;2023-02-22T06:10:48;17.47;;;10.23;;
16506;SDS011;8366;51.020;7.642;2023-02-22T06:13:14;17.93;;;10.07;;
16506;SDS011;8366;51.020;7.642;2023-02-22T06:15:41;17.37;;;9.73;;
16506;SDS011;8366;51.020;7.642;2023-02-22T06:18:07;18.57;;;9.60;;
16506;SDS011;8366;51.020;7.642;2023-02-22T06:20:35;18.77;;;10.57;;
16506;SDS011;8366;51.020;7.642;2023-02-22T06:23:01;18.67;;;10.13;;
16506;SDS011;8366;51.020;7.642;2023-02-22T06:25:29;20.57;;;9.87;;
16506;SDS011;8366;51.020;7.642;2023-02-22T06:27:56;19.67;;;10.60;;
16506;SDS011;8366;51.020;7.642;2023-02-22T06:30:23;18.30;;;10.67;;
16506;SDS011;8366;51.020;7.642;2023-02-22T06:32:50;20.90;;;10.47;;
16506;SDS011;8366;51.020;7.642;2023-02-22T06:35:17;20.40;;;10.90;;
16506;SDS011;8366;51.020;7.642;2023-02-22T06:37:43;20.63;;;12.00;;
16506;SDS011;8366;51.020;7.642;2023-02-22T06:40:10;20.17;;;11.13;;
16506;SDS011;8366;51.020;7.642;2023-02-22T06:42:39;19.67;;;11.60;;
16506;SDS011;8366;51.020;7.642;2023-02-22T06:45:06;18.90;;;10.50;;
16506;SDS011;8366;51.020;7.642;2023-02-22T06:47:36;22.17;;;11.17;;
16506;SDS011;8366;51.020;7.642;2023-02-22T06:50:03;20.73;;;11.37;;
16506;SDS011;8366;51.020;7.642;2023-02-22T06:52:30;23.30;;;12.20;;
16506;SDS011;8366;51.020;7.642;2023-02-22T06:54:57;19.83;;;11.53;;
16506;SDS011;8366;51.020;7.642;2023-02-22T06:57:23;20.27;;;12.10;;
16506;SDS011;8366;51.020;7.642;2023-02-22T06:59:51;25.97;;;13.53;;
16506;SDS011;8366;51.020;7.642;2023-02-22T07:02:18;21.50;;;12.70;;
16506;SDS011;8366;51.020;7.642;2023-02-22T07:04:44;23.47;;;11.97;;
16506;SDS011;8366;51.020;7.642;2023-02-22T07:07:11;20.63;;;12.67;;
16506;SDS011;8366;51.020;7.642;2023-02-22T07:09:37;19.80;;;12.07;;
16506;SDS011;8366;51.020;7.642;2023-02-22T07:12:03;24.00;;;12.40;;
16506;SDS011;8366;51.020;7.642;2023-02-22T07:14:31;20.43;;;11.27;;
16506;SDS011;8366;51.020;7.642;2023-02-22T07:16:59;22.03;;;11.43;;
16506;SDS011;8366;51.020;7.642;2023-02-22T07:19:25;26.40;;;13.17;;
16506;SDS011;8366;51.020;7.642;2023-02-22T07:21:52;21.27;;;11.83;;
16506;SDS011;8366;51.020;7.642;2023-02-22T07:24:23;20.50;;;11.57;;
16506;SDS011;8366;51.020;7.642;2023-02-22T07:26:50;19.00;;;11.27;;
16506;SDS011;8366;51.020;7.642;2023-02-22T07:29:18;23.20;;;11.60;;
16506;SDS011;8366;51.020;7.642;2023-02-22T07:31:46;23.23;;;12.17;;
16506;SDS011;8366;51.020;7.642;2023-02-22T07:34:14;20.30;;;10.90;;
16506;SDS011;8366;51.020;7.642;2023-02-22T07:36:40;21.30;;;11.80;;
16506;SDS011;8366;51.020;7.642;2023-02-22T07:39:07;20.00;;;11.77;;
16506;SDS011;8366;51.020;7.642;2023-02-22T07:41:34;21.33;;;11.43;;
16506;SDS011;8366;51.020;7.642;2023-02-22T07:44:00;24.10;;;12.10;;
16506;SDS011;8366;51.020;7.642;2023-02-22T07:46:27;23.90;;;13.83;;
16506;SDS011;8366;51.020;7.642;2023-02-22T07:48:53;23.83;;;13.50;;
16506;SDS011;8366;51.020;7.642;2023-02-22T07:51:21;24.00;;;13.37;;
16506;SDS011;8366;51.020;7.642;2023-02-22T07:53:48;23.03;;;12.77;;
16506;SDS011;8366;51.020;7.642;2023-02-22T07:56:14;22.37;;;12.77;;
16506;SDS011;8366;51.020;7.642;2023-02-22T07:58:42;26.00;;;12.73;;
16506;SDS011;8366;51.020;7.642;2023-02-22T08:01:08;23.97;;;12.73;;
16506;SDS011;8366;51.020;7.642;2023-02-22T08:03:35;23.07;;;13.53;;
16506;SDS011;8366;51.020;7.642;2023-02-22T08:06:02;22.83;;;13.27;;
16506;SDS011;8366;51.020;7.642;2023-02-22T08:08:31;26.83;;;13.20;;
16506;SDS011;8366;51.020;7.642;2023-02-22T08:10:58;27.53;;;13.43;;
16506;SDS011;8366;51.020;7.642;2023-02-22T08:13:25;26.27;;;14.63;;
16506;SDS011;8366;51.020;7.642;2023-02-22T08:15:51;31.97;;;14.53;;
16506;SDS011;8366;51.020;7.642;2023-02-22T08:18:19;27.53;;;14.00;;
16506;SDS011;8366;51.020;7.642;2023-02-22T08:20:46;25.90;;;14.27;;
16506;SDS011;8366;51.020;7.642;2023-02-22T08:23:14;26.37;;;14.10;;
16506;SDS011;8366;51.020;7.642;2023-02-22T08:25:42;27.33;;;14.20;;
16506;SDS011;8366;51.020;7.642;2023-02-22T08:28:10;28.27;;;14.63;;
16506;SDS011;8366;51.020;7.642;2023-02-22T08:30:38;25.07;;;13.90;;
16506;SDS011;8366;51.020;7.642;2023-02-22T08:33:06;25.77;;;14.33;;
16506;SDS011;8366;51.020;7.642;2023-02-22T08:35:33;30.50;;;14.60;;
16506;SDS011;8366;51.020;7.642;2023-02-22T08:38:00;27.50;;;14.47;;
16506;SDS011;8366;51.020;7.642;2023-02-22T08:40:28;27.50;;;14.43;;
16506;SDS011;8366;51.020;7.642;2023-02-22T08:42:57;24.17;;;14.13;;
16506;SDS011;8366;51.020;7.642;2023-02-22T08:45:25;24.00;;;14.63;;
16506;SDS011;8366;51.020;7.642;2023-02-22T08:47:52;29.13;;;15.00;;
16506;SDS011;8366;51.020;7.642;2023-02-22T08:50:20;26.40;;;15.03;;
16506;SDS011;8366;51.020;7.642;2023-02-22T08:52:48;28.70;;;14.87;;
16506;SDS011;8366;51.020;7.642;2023-02-22T08:55:17;28.00;;;15.57;;
16506;SDS011;8366;51.020;7.642;2023-02-22T08:57:44;28.70;;;15.37;;
16506;SDS011;8366;51.020;7.642;2023-02-22T09:00:13;28.40;;;16.27;;
16506;SDS011;8366;51.020;7.642;2023-02-22T09:02:40;27.30;;;16.07;;
16506;SDS011;8366;51.020;7.642;2023-02-22T09:05:07;29.73;;;16.23;;
16506;SDS011;8366;51.020;7.642;2023-02-22T09:07:34;25.63;;;16.13;;
16506;SDS011;8366;51.020;7.642;2023-02-22T09:10:00;28.37;;;16.17;;
16506;SDS011;8366;51.020;7.642;2023-02-22T09:12:27;30.57;;;16.33;;
16506;SDS011;8366;51.020;7.642;2023-02-22T09:14:53;31.87;;;17.77;;
16506;SDS011;8366;51.020;7.642;2023-02-22T09:17:21;32.97;;;18.40;;
16506;SDS011;8366;51.020;7.642;2023-02-22T09:19:47;37.20;;;19.03;;
16506;SDS011;8366;51.020;7.642;2023-02-22T09:22:14;34.90;;;19.37;;
16506;SDS011;8366;51.020;7.642;2023-02-22T09:24:40;33.93;;;18.40;;
16506;SDS011;8366;51.020;7.642;2023-02-22T09:27:08;30.57;;;17.70;;
16506;SDS011;8366;51.020;7.642;2023-02-22T09:29:36;29.03;;;17.80;;
16506;SDS011;8366;51.020;7.642;2023-02-22T09:32:03;31.43;;;17.40;;
16506;SDS011;8366;51.020;7.642;2023-02-22T09:34:31;30.50;;;17.40;;
16506;SDS011;8366;51.020;7.642;2023-02-22T09:36:59;29.10;;;17.57;;
16506;SDS011;8366;51.020;7.642;2023-02-22T09:39:26;28.27;;;16.63;;
16506;SDS011;8366;51.020;7.642;2023-02-22T09:41:55;26.40;;;16.90;;
16506;SDS011;8366;51.020;7.642;2023-02-22T09:44:23;26.73;;;17.17;;
16506;SDS011;8366;51.020;7.642;2023-02-22T09:46:54;26.17;;;17.43;;
16506;SDS011;8366;51.020;7.642;2023-02-22T09:49:23;28.20;;;17.20;;
16506;SDS011;8366;51.020;7.642;2023-02-22T09:51:56;28.77;;;17.07;;
16506;SDS011;8366;51.020;7.642;2023-02-22T09:54:27;28.67;;;17.63;;
16506;SDS011;8366;51.020;7.642;2023-02-22T09:56:59;27.57;;;17.00;;
16506;SDS011;8366;51.020;7.642;2023-02-22T09:59:28;25.10;;;16.93;;
16506;SDS011;8366;51.020;7.642;2023-02-22T10:01:58;29.93;;;16.50;;
16506;SDS011;8366;51.020;7.642;2023-02-22T10:04:34;29.53;;;16.67;;
16506;SDS011;8366;51.020;7.642;2023-02-22T10:07:09;25.47;;;16.33;;
16506;SDS011;8366;51.020;7.642;2023-02-22T10:09:41;24.17;;;16.10;;
16506;SDS011;8366;51.020;7.642;2023-02-22T10:12:09;31.53;;;15.63;;
16506;SDS011;8366;51.020;7.642;2023-02-22T10:14:42;25.70;;;15.50;;
16506;SDS011;8366;51.020;7.642;2023-02-22T10:17:16;22.33;;;14.83;;
16506;SDS011;8366;51.020;7.642;2023-02-22T10:19:50;25.47;;;14.80;;
16506;SDS011;8366;51.020;7.642;2023-02-22T10:22:37;22.87;;;13.07;;
16506;SDS011;8366;51.020;7.642;2023-02-22T10:25:09;17.50;;;11.43;;
16506;SDS011;8366;51.020;7.642;2023-02-22T10:27:38;16.80;;;11.63;;
16506;SDS011;8366;51.020;7.642;2023-02-22T10:30:06;17.23;;;11.17;;
16506;SDS011;8366;51.020;7.642;2023-02-22T10:32:40;17.97;;;10.27;;
16506;SDS011;8366;51.020;7.642;2023-02-22T10:35:12;18.33;;;10.40;;
16506;SDS011;8366;51.020;7.642;2023-02-22T10:37:44;15.97;;;9.83;;
16506;SDS011;8366;51.020;7.642;2023-02-22T10:40:13;14.77;;;9.67;;
16506;SDS011;8366;51.020;7.642;2023-02-22T10:42:42;13.93;;;9.37;;
16506;SDS011;8366;51.020;7.642;2023-02-22T10:45:15;13.40;;;9.33;;
16506;SDS011;8366;51.020;7.642;2023-02-22T10:47:44;16.20;;;10.20;;
16506;SDS011;8366;51.020;7.642;2023-02-22T10:50:12;15.37;;;9.73;;
16506;SDS011;8366;51.020;7.642;2023-02-22T10:52:39;13.63;;;9.63;;
16506;SDS011;8366;51.020;7.642;2023-02-22T10:58:06;15.50;;;9.37;;
16506;SDS011;8366;51.020;7.642;2023-02-22T11:00:36;14.27;;;8.97;;
16506;SDS011;8366;51.020;7.642;2023-02-22T11:03:05;14.30;;;8.97;;
16506;SDS011;8366;51.020;7.642;2023-02-22T11:05:42;13.73;;;8.40;;
16506;SDS011;8366;51.020;7.642;2023-02-22T11:08:14;13.60;;;9.30;;
16506;SDS011;8366;51.020;7.642;2023-02-22T11:10:49;12.37;;;8.63;;
16506;SDS011;8366;51.020;7.642;2023-02-22T11:13:22;12.55;;;8.90;;
16506;SDS011;8366;51.020;7.642;2023-02-22T11:15:51;13.20;;;8.70;;
16506;SDS011;8366;51.020;7.642;2023-02-22T11:18:21;12.17;;;7.53;;
16506;SDS011;8366;51.020;7.642;2023-02-22T11:20:50;14.32;;;8.10;;
16506;SDS011;8366;51.020;7.642;2023-02-22T11:23:24;14.07;;;8.80;;
16506;SDS011;8366;51.020;7.642;2023-02-22T11:25:51;12.13;;;8.05;;
16506;SDS011;8366;51.020;7.642;2023-02-22T11:28:28;11.98;;;7.65;;
16506;SDS011;8366;51.020;7.642;2023-02-22T11:30:57;12.63;;;7.93;;
16506;SDS011;8366;51.020;7.642;2023-02-22T11:33:25;11.65;;;7.60;;
16506;SDS011;8366;51.020;7.642;2023-02-22T11:35:53;12.85;;;7.75;;
16506;SDS011;8366;51.020;7.642;2023-02-22T11:38:22;11.52;;;7.57;;
16506;SDS011;8366;51.020;7.642;2023-02-22T11:41:03;10.02;;;6.80;;
16506;SDS011;8366;51.020;7.642;2023-02-22T11:43:39;8.43;;;5.68;;
16506;SDS011;8366;51.020;7.642;2023-02-22T11:46:08;11.35;;;6.20;;
16506;SDS011;8366;51.020;7.642;2023-02-22T11:48:38;10.10;;;5.93;;
16506;SDS011;8366;51.020;7.642;2023-02-22T11:51:15;10.13;;;5.47;;
16506;SDS011;8366;51.020;7.642;2023-02-22T11:53:50;9.70;;;5.40;;
16506;SDS011;8366;51.020;7.642;2023-02-22T11:56:27;10.18;;;5.03;;
16506;SDS011;8366;51.020;7.642;2023-02-22T11:59:17;8.02;;;5.32;;
16506;SDS011;8366;51.020;7.642;2023-02-22T12:02:00;11.25;;;5.65;;
16506;SDS011;8366;51.020;7.642;2023-02-22T12:04:47;11.10;;;5.85;;
16506;SDS011;8366;51.020;7.642;2023-02-22T12:07:55;8.25;;;5.50;;
16506;SDS011;8366;51.020;7.642;2023-02-22T12:10:31;7.43;;;5.22;;
16506;SDS011;8366;51.020;7.642;2023-02-22T12:13:12;9.45;;;6.00;;
16506;SDS011;8366;51.020;7.642;2023-02-22T12:15:50;9.30;;;5.70;;
16506;SDS011;8366;51.020;7.642;2023-02-22T12:18:24;8.50;;;5.68;;
16506;SDS011;8366;51.020;7.642;2023-02-22T12:20:56;8.45;;;5.38;;
16506;SDS011;8366;51.020;7.642;2023-02-22T12:23:24;11.07;;;5.88;;
16506;SDS011;8366;51.020;7.642;2023-02-22T12:25:58;9.45;;;6.72;;
16506;SDS011;8366;51.020;7.642;2023-02-22T12:28:29;10.38;;;6.45;;
16506;SDS011;8366;51.020;7.642;2023-02-22T12:33:49;9.35;;;5.90;;
16506;SDS011;8366;51.020;7.642;2023-02-22T12:36:19;9.85;;;6.35;;
16506;SDS011;8366;51.020;7.642;2023-02-22T12:38:51;10.25;;;6.53;;
16506;SDS011;8366;51.020;7.642;2023-02-22T12:41:21;9.10;;;6.85;;
16506;SDS011;8366;51.020;7.642;2023-02-22T12:43:52;12.52;;;7.45;;
16506;SDS011;8366;51.020;7.642;2023-02-22T12:46:23;10.15;;;6.22;;
16506;SDS011;8366;51.020;7.642;2023-02-22T12:48:53;10.48;;;6.15;;
16506;SDS011;8366;51.020;7.642;2023-02-22T12:51:25;10.05;;;6.22;;
16506;SDS011;8366;51.020;7.642;2023-02-22T12:53:56;9.23;;;5.63;;
16506;SDS011;8366;51.020;7.642;2023-02-22T12:56:28;7.88;;;5.55;;
16506;SDS011;8366;51.020;7.642;2023-02-22T12:58:58;10.07;;;6.45;;
16506;SDS011;8366;51.020;7.642;2023-02-22T13:01:29;10.63;;;6.45;;
16506;SDS011;8366;51.020;7.642;2023-02-22T13:04:01;9.10;;;6.32;;
16506;SDS011;8366;51.020;7.642;2023-02-22T13:06:39;9.02;;;5.68;;
16506;SDS011;8366;51.020;7.642;2023-02-22T13:09:17;8.02;;;5.22;;
16506;SDS011;8366;51.020;7.642;2023-02-22T13:11:54;9.07;;;5.72;;
16506;SDS011;8366;51.020;7.642;2023-02-22T13:14:29;10.15;;;5.78;;
16506;SDS011;8366;51.020;7.642;2023-02-22T13:17:05;9.48;;;5.43;;
16506;SDS011;8366;51.020;7.642;2023-02-22T13:19:37;7.60;;;5.15;;
16506;SDS011;8366;51.020;7.642;2023-02-22T13:22:10;8.00;;;5.70;;
16506;SDS011;8366;51.020;7.642;2023-02-22T13:24:42;10.15;;;6.07;;
16506;SDS011;8366;51.020;7.642;2023-02-22T13:27:15;6.45;;;5.40;;
16506;SDS011;8366;51.020;7.642;2023-02-22T13:29:45;7.90;;;5.28;;
16506;SDS011;8366;51.020;7.642;2023-02-22T13:32:18;10.30;;;5.70;;
16506;SDS011;8366;51.020;7.642;2023-02-22T13:34:57;6.88;;;5.20;;
16506;SDS011;8366;51.020;7.642;2023-02-22T13:37:32;9.30;;;5.55;;
16506;SDS011;8366;51.020;7.642;2023-02-22T13:40:23;8.55;;;5.85;;
16506;SDS011;8366;51.020;7.642;2023-02-22T13:43:04;8.38;;;6.07;;
16506;SDS011;8366;51.020;7.642;2023-02-22T13:45:55;8.38;;;5.55;;
16506;SDS011;8366;51.020;7.642;2023-02-22T13:48:39;9.07;;;5.82;;
16506;SDS011;8366;51.020;7.642;2023-02-22T13:51:36;9.57;;;6.20;;
16506;SDS011;8366;51.020;7.642;2023-02-22T13:54:12;10.35;;;6.20;;
16506;SDS011;8366;51.020;7.642;2023-02-22T13:56:43;7.75;;;5.80;;
16506;SDS011;8366;51.020;7.642;2023-02-22T13:59:20;10.50;;;5.25;;
16506;SDS011;8366;51.020;7.642;2023-02-22T14:01:49;8.10;;;5.00;;
16506;SDS011;8366;51.020;7.642;2023-02-22T14:04:19;8.38;;;5.38;;
16506;SDS011;8366;51.020;7.642;2023-02-22T14:06:48;8.55;;;5.03;;
16506;SDS011;8366;51.020;7.642;2023-02-22T14:09:15;7.50;;;4.68;;
16506;SDS011;8366;51.020;7.642;2023-02-22T14:11:44;8.73;;;5.28;;
16506;SDS011;8366;51.020;7.642;2023-02-22T14:14:12;11.20;;;5.32;;
16506;SDS011;8366;51.020;7.642;2023-02-22T14:16:43;7.60;;;5.43;;
16506;SDS011;8366;51.020;7.642;2023-02-22T14:19:13;6.60;;;5.03;;
16506;SDS011;8366;51.020;7.642;2023-02-22T14:21:56;9.35;;;5.50;;
16506;SDS011;8366;51.020;7.642;2023-02-22T14:24:26;8.80;;;4.93;;
16506;SDS011;8366;51.020;7.642;2023-02-22T14:26:54;9.73;;;5.88;;
16506;SDS011;8366;51.020;7.642;2023-02-22T14:29:23;9.05;;;5.78;;
16506;SDS011;8366;51.020;7.642;2023-02-22T14:32:03;8.30;;;5.28;;
16506;SDS011;8366;51.020;7.642;2023-02-22T14:34:48;9.27;;;6.10;;
16506;SDS011;8366;51.020;7.642;2023-02-22T14:37:20;9.15;;;5.60;;
16506;SDS011;8366;51.020;7.642;2023-02-22T14:39:49;9.65;;;5.97;;
16506;SDS011;8366;51.020;7.642;2023-02-22T14:42:18;7.93;;;5.97;;
16506;SDS011;8366;51.020;7.642;2023-02-22T14:44:52;9.88;;;5.78;;
16506;SDS011;8366;51.020;7.642;2023-02-22T14:47:22;7.57;;;5.57;;
16506;SDS011;8366;51.020;7.642;2023-02-22T14:49:52;9.30;;;6.10;;
16506;SDS011;8366;51.020;7.642;2023-02-22T14:52:24;9.90;;;5.93;;
16506;SDS011;8366;51.020;7.642;2023-02-22T14:55:05;8.23;;;5.85;;
16506;SDS011;8366;51.020;7.642;2023-02-22T14:57:40;9.18;;;6.28;;
16506;SDS011;8366;51.020;7.642;2023-02-22T15:00:13;9.88;;;6.80;;
16506;SDS011;8366;51.020;7.642;2023-02-22T15:02:47;13.73;;;7.05;;
16506;SDS011;8366;51.020;7.642;2023-02-22T15:05:16;11.43;;;6.75;;
16506;SDS011;8366;51.020;7.642;2023-02-22T15:07:53;8.85;;;6.57;;